createdAt,value
2018-11-13T00:00:31.911Z,1013.10
2018-11-13T00:01:31.924Z,1013.08
2018-11-13T00:02:31.890Z,1013.07
2018-11-13T00:03:31.895Z,1013.10
2018-11-13T00:04:31.900Z,1013.11
2018-11-13T00:05:31.908Z,1013.08
2018-11-13T00:06:31.911Z,1013.07
2018-11-13T00:07:31.912Z,1013.05
2018-11-13T00:08:31.891Z,1012.99
2018-11-13T00:09:31.890Z,1013.00
2018-11-13T00:10:31.898Z,1012.97
2018-11-13T00:11:31.936Z,1012.97
2018-11-13T00:12:31.916Z,1012.94
2018-11-13T00:13:31.910Z,1012.93
2018-11-13T00:14:31.917Z,1012.96
2018-11-13T00:15:31.932Z,1012.96
2018-11-13T00:16:31.909Z,1012.98
2018-11-13T00:17:31.888Z,1012.98
2018-11-13T00:18:31.896Z,1012.98
2018-11-13T00:19:31.896Z,1012.97
2018-11-13T00:20:31.888Z,1013.00
2018-11-13T00:21:31.903Z,1013.02
2018-11-13T00:22:31.892Z,1013.05
2018-11-13T00:23:31.910Z,1013.12
2018-11-13T00:24:31.936Z,1013.12
2018-11-13T00:25:31.896Z,1013.15
2018-11-13T00:26:31.903Z,1013.21
2018-11-13T00:27:32.027Z,1013.24
2018-11-13T00:28:32.050Z,1013.33
2018-11-13T00:29:31.934Z,1013.33
2018-11-13T00:30:31.929Z,1013.41
2018-11-13T00:31:31.916Z,1013.41
2018-11-13T00:32:31.895Z,1013.47
2018-11-13T00:33:31.924Z,1013.48
2018-11-13T00:34:31.904Z,1013.43
2018-11-13T00:35:31.948Z,1013.40
2018-11-13T00:36:31.900Z,1013.41
2018-11-13T00:37:31.899Z,1013.38
2018-11-13T00:38:31.902Z,1013.39
2018-11-13T00:39:31.905Z,1013.31
2018-11-13T00:40:31.914Z,1013.27
2018-11-13T00:41:31.905Z,1013.24
2018-11-13T00:42:31.917Z,1013.19
2018-11-13T00:43:31.950Z,1013.13
2018-11-13T00:44:31.930Z,1013.09
2018-11-13T00:45:31.989Z,1013.11
2018-11-13T00:46:31.930Z,1013.01
2018-11-13T00:47:31.918Z,1013.06
2018-11-13T00:48:31.914Z,1013.07
2018-11-13T00:49:31.907Z,1013.12
2018-11-13T00:50:31.951Z,1013.20
2018-11-13T00:51:31.932Z,1013.19
2018-11-13T00:52:32.072Z,1013.17
2018-11-13T00:53:31.908Z,1013.19
2018-11-13T00:54:31.921Z,1013.26
2018-11-13T00:55:31.919Z,1013.26
2018-11-13T00:56:31.912Z,1013.27
2018-11-13T00:57:31.916Z,1013.29
2018-11-13T00:58:31.906Z,1013.31
2018-11-13T00:59:32.165Z,1013.36
2018-11-13T01:00:31.934Z,1013.34
2018-11-13T01:01:31.911Z,1013.35
2018-11-13T01:02:31.922Z,1013.36
2018-11-13T01:03:31.919Z,1013.35
2018-11-13T01:04:31.935Z,1013.35
2018-11-13T01:05:32.097Z,1013.33
2018-11-13T01:06:31.936Z,1013.27
2018-11-13T01:07:31.956Z,1013.29
2018-11-13T01:08:31.919Z,1013.22
2018-11-13T01:09:31.919Z,1013.25
2018-11-13T01:10:31.911Z,1013.17
2018-11-13T01:11:31.932Z,1013.19
2018-11-13T01:12:31.928Z,1013.20
2018-11-13T01:13:31.917Z,1013.21
2018-11-13T01:14:31.927Z,1013.25
2018-11-13T01:15:31.913Z,1013.21
2018-11-13T01:16:31.924Z,1013.19
2018-11-13T01:17:32.391Z,1013.17
2018-11-13T01:18:31.927Z,1013.13
2018-11-13T01:19:31.923Z,1013.12
2018-11-13T01:20:31.916Z,1013.12
2018-11-13T01:21:31.948Z,1013.08
2018-11-13T01:22:31.941Z,1012.98
2018-11-13T01:23:31.926Z,1012.89
2018-11-13T01:24:31.917Z,1012.88
2018-11-13T01:25:31.955Z,1012.83
2018-11-13T01:26:31.922Z,1012.87
2018-11-13T01:27:31.934Z,1012.84
2018-11-13T01:28:31.936Z,1012.88
2018-11-13T01:29:31.922Z,1012.90
2018-11-13T01:30:31.936Z,1012.93
2018-11-13T01:31:31.944Z,1012.94
2018-11-13T01:32:31.926Z,1012.98
2018-11-13T01:33:31.925Z,1013.03
2018-11-13T01:34:31.947Z,1013.08
2018-11-13T01:35:31.930Z,1013.13
2018-11-13T01:36:31.943Z,1013.17
2018-11-13T01:37:31.938Z,1013.18
2018-11-13T01:38:31.941Z,1013.19
2018-11-13T01:39:31.961Z,1013.22
2018-11-13T01:40:31.932Z,1013.24
2018-11-13T01:41:31.982Z,1013.18
2018-11-13T01:42:31.928Z,1013.13
2018-11-13T01:43:31.942Z,1013.14
2018-11-13T01:44:31.955Z,1013.15
2018-11-13T01:45:31.942Z,1013.16
2018-11-13T01:46:31.942Z,1013.13
2018-11-13T01:47:31.926Z,1013.17
2018-11-13T01:48:31.927Z,1013.18
2018-11-13T01:49:32.073Z,1013.18
2018-11-13T01:50:31.951Z,1013.17
2018-11-13T01:51:31.948Z,1013.23
2018-11-13T01:52:31.960Z,1013.20
2018-11-13T01:53:31.942Z,1013.24
2018-11-13T01:54:32.215Z,1013.21
2018-11-13T01:55:31.930Z,1013.22
2018-11-13T01:56:31.925Z,1013.23
2018-11-13T01:57:31.927Z,1013.30
2018-11-13T01:58:31.998Z,1013.29
2018-11-13T01:59:31.946Z,1013.34
2018-11-13T02:00:31.932Z,1013.34
2018-11-13T02:01:31.937Z,1013.34
2018-11-13T02:02:31.936Z,1013.36
2018-11-13T02:03:31.935Z,1013.34
2018-11-13T02:04:31.932Z,1013.35
2018-11-13T02:05:31.936Z,1013.37
2018-11-13T02:06:31.937Z,1013.47
2018-11-13T02:07:31.932Z,1013.50
2018-11-13T02:08:31.936Z,1013.57
2018-11-13T02:09:31.955Z,1013.65
2018-11-13T02:10:31.948Z,1013.56
2018-11-13T02:11:31.957Z,1013.51
2018-11-13T02:12:31.937Z,1013.48
2018-11-13T02:13:31.997Z,1013.39
2018-11-13T02:14:31.932Z,1013.41
2018-11-13T02:15:31.956Z,1013.35
2018-11-13T02:16:31.931Z,1013.31
2018-11-13T02:17:31.952Z,1013.29
2018-11-13T02:18:31.930Z,1013.24
2018-11-13T02:19:31.945Z,1013.25
2018-11-13T02:20:31.949Z,1013.23
2018-11-13T02:21:31.937Z,1013.27
2018-11-13T02:22:31.946Z,1013.26
2018-11-13T02:23:31.952Z,1013.25
2018-11-13T02:24:31.949Z,1013.27
2018-11-13T02:25:31.974Z,1013.23
2018-11-13T02:26:31.958Z,1013.22
2018-11-13T02:27:31.964Z,1013.20
2018-11-13T02:28:31.973Z,1013.16
2018-11-13T02:29:31.971Z,1013.09
2018-11-13T02:30:31.951Z,1013.06
2018-11-13T02:31:31.940Z,1013.04
2018-11-13T02:32:31.939Z,1013.01
2018-11-13T02:33:31.948Z,1012.96
2018-11-13T02:34:32.010Z,1012.96
2018-11-13T02:35:32.007Z,1012.93
2018-11-13T02:36:31.973Z,1012.86
2018-11-13T02:37:31.995Z,1012.89
2018-11-13T02:38:31.944Z,1012.89
2018-11-13T02:39:31.973Z,1012.93
2018-11-13T02:40:31.958Z,1012.98
2018-11-13T02:41:31.973Z,1013.05
2018-11-13T02:42:31.964Z,1013.08
2018-11-13T02:43:31.965Z,1013.11
2018-11-13T02:44:31.964Z,1013.11
2018-11-13T02:45:31.953Z,1013.10
2018-11-13T02:46:31.977Z,1013.10
2018-11-13T02:47:32.044Z,1013.13
2018-11-13T02:48:31.965Z,1013.14
2018-11-13T02:49:31.984Z,1013.15
2018-11-13T02:50:31.972Z,1013.09
2018-11-13T02:51:31.952Z,1013.13
2018-11-13T02:52:31.956Z,1013.08
2018-11-13T02:53:31.958Z,1013.14
2018-11-13T02:54:31.963Z,1013.14
2018-11-13T02:55:31.950Z,1013.18
2018-11-13T02:56:31.965Z,1013.25
2018-11-13T02:57:31.959Z,1013.35
2018-11-13T02:58:31.970Z,1013.34
2018-11-13T02:59:31.956Z,1013.38
2018-11-13T03:00:31.972Z,1013.31
2018-11-13T03:01:31.953Z,1013.28
2018-11-13T03:02:31.961Z,1013.26
2018-11-13T03:03:31.957Z,1013.26
2018-11-13T03:04:31.958Z,1013.25
2018-11-13T03:05:31.953Z,1013.22
2018-11-13T03:06:31.954Z,1013.24
2018-11-13T03:07:31.970Z,1013.21
2018-11-13T03:08:31.960Z,1013.23
2018-11-13T03:09:31.945Z,1013.24
2018-11-13T03:10:31.954Z,1013.29
2018-11-13T03:11:31.961Z,1013.25
2018-11-13T03:12:31.964Z,1013.25
2018-11-13T03:13:33.735Z,1013.24
2018-11-13T03:14:31.972Z,1013.20
2018-11-13T03:15:31.977Z,1013.12
2018-11-13T03:16:31.994Z,1013.12
2018-11-13T03:17:31.958Z,1013.12
2018-11-13T03:18:31.962Z,1013.15
2018-11-13T03:19:31.951Z,1013.22
2018-11-13T03:20:31.961Z,1013.22
2018-11-13T03:21:31.961Z,1013.22
2018-11-13T03:22:31.954Z,1013.23
2018-11-13T03:23:31.958Z,1013.27
2018-11-13T03:24:31.977Z,1013.29
2018-11-13T03:25:31.970Z,1013.30
2018-11-13T03:26:31.971Z,1013.35
2018-11-13T03:27:31.976Z,1013.35
2018-11-13T03:28:31.970Z,1013.35
2018-11-13T03:29:31.957Z,1013.30
2018-11-13T03:30:31.962Z,1013.26
2018-11-13T03:31:31.997Z,1013.25
2018-11-13T03:32:31.962Z,1013.22
2018-11-13T03:33:31.957Z,1013.14
2018-11-13T03:34:31.958Z,1013.06
2018-11-13T03:35:31.954Z,1013.00
2018-11-13T03:36:31.964Z,1013.03
2018-11-13T03:37:31.967Z,1013.09
2018-11-13T03:38:31.965Z,1013.15
2018-11-13T03:39:31.959Z,1013.16
2018-11-13T03:40:31.965Z,1013.23
2018-11-13T03:41:31.978Z,1013.20
2018-11-13T03:42:31.965Z,1013.24
2018-11-13T03:43:31.968Z,1013.24
2018-11-13T03:44:31.953Z,1013.23
2018-11-13T03:45:31.958Z,1013.19
2018-11-13T03:46:31.955Z,1013.20
2018-11-13T03:47:31.987Z,1013.21
2018-11-13T03:48:31.985Z,1013.25
2018-11-13T03:49:31.987Z,1013.29
2018-11-13T03:50:31.970Z,1013.33
2018-11-13T03:51:31.961Z,1013.35
2018-11-13T03:52:31.966Z,1013.39
2018-11-13T03:53:31.975Z,1013.43
2018-11-13T03:54:31.988Z,1013.48
2018-11-13T03:55:31.974Z,1013.48
2018-11-13T03:56:31.974Z,1013.46
2018-11-13T03:57:31.987Z,1013.42
2018-11-13T03:58:31.975Z,1013.40
2018-11-13T03:59:32.003Z,1013.44
2018-11-13T04:00:31.963Z,1013.48
2018-11-13T04:01:31.972Z,1013.54
2018-11-13T04:02:31.970Z,1013.54
2018-11-13T04:03:31.972Z,1013.55
2018-11-13T04:04:31.976Z,1013.51
2018-11-13T04:05:31.955Z,1013.49
2018-11-13T04:06:31.991Z,1013.47
2018-11-13T04:07:31.960Z,1013.54
2018-11-13T04:08:31.979Z,1013.57
2018-11-13T04:09:31.961Z,1013.65
2018-11-13T04:10:31.962Z,1013.73
2018-11-13T04:11:31.986Z,1013.79
2018-11-13T04:12:31.976Z,1013.79
2018-11-13T04:13:31.957Z,1013.86
2018-11-13T04:14:31.964Z,1013.84
2018-11-13T04:15:31.982Z,1013.84
2018-11-13T04:16:31.982Z,1013.82
2018-11-13T04:17:31.989Z,1013.81
2018-11-13T04:18:31.972Z,1013.76
2018-11-13T04:19:31.966Z,1013.73
2018-11-13T04:20:31.955Z,1013.71
2018-11-13T04:21:31.995Z,1013.68
2018-11-13T04:22:31.983Z,1013.66
2018-11-13T04:23:31.958Z,1013.67
2018-11-13T04:24:31.969Z,1013.61
2018-11-13T04:25:31.962Z,1013.59
2018-11-13T04:26:31.989Z,1013.60
2018-11-13T04:27:31.986Z,1013.65
2018-11-13T04:28:31.979Z,1013.68
2018-11-13T04:29:31.976Z,1013.77
2018-11-13T04:30:31.967Z,1013.71
2018-11-13T04:31:31.982Z,1013.62
2018-11-13T04:32:31.997Z,1013.55
2018-11-13T04:33:31.972Z,1013.50
2018-11-13T04:34:31.982Z,1013.49
2018-11-13T04:35:31.973Z,1013.57
2018-11-13T04:36:31.973Z,1013.63
2018-11-13T04:37:31.978Z,1013.63
2018-11-13T04:38:31.976Z,1013.57
2018-11-13T04:39:32.003Z,1013.49
2018-11-13T04:40:31.965Z,1013.51
2018-11-13T04:41:32.016Z,1013.50
2018-11-13T04:42:31.988Z,1013.49
2018-11-13T04:43:31.978Z,1013.47
2018-11-13T04:44:31.972Z,1013.53
2018-11-13T04:45:31.979Z,1013.57
2018-11-13T04:46:31.976Z,1013.52
2018-11-13T04:47:31.991Z,1013.51
2018-11-13T04:48:31.979Z,1013.51
2018-11-13T04:49:31.977Z,1013.52
2018-11-13T04:50:31.987Z,1013.55
2018-11-13T04:51:32.021Z,1013.55
2018-11-13T04:52:31.977Z,1013.54
2018-11-13T04:53:31.996Z,1013.53
2018-11-13T04:54:32.007Z,1013.49
2018-11-13T04:55:31.969Z,1013.46
2018-11-13T04:56:31.981Z,1013.44
2018-11-13T04:57:31.986Z,1013.48
2018-11-13T04:58:31.993Z,1013.53
2018-11-13T04:59:31.981Z,1013.55
2018-11-13T05:00:31.969Z,1013.62
2018-11-13T05:01:31.998Z,1013.61
2018-11-13T05:02:31.967Z,1013.61
2018-11-13T05:03:31.987Z,1013.57
2018-11-13T05:04:32.002Z,1013.50
2018-11-13T05:05:31.987Z,1013.43
2018-11-13T05:06:32.010Z,1013.42
2018-11-13T05:07:31.983Z,1013.34
2018-11-13T05:08:31.995Z,1013.34
2018-11-13T05:09:31.987Z,1013.37
2018-11-13T05:10:31.974Z,1013.42
2018-11-13T05:11:31.985Z,1013.43
2018-11-13T05:12:31.978Z,1013.44
2018-11-13T05:13:31.996Z,1013.44
2018-11-13T05:14:31.973Z,1013.45
2018-11-13T05:15:32.000Z,1013.49
2018-11-13T05:16:31.973Z,1013.52
2018-11-13T05:17:31.977Z,1013.58
2018-11-13T05:18:31.989Z,1013.63
2018-11-13T05:19:31.974Z,1013.63
2018-11-13T05:20:31.980Z,1013.69
2018-11-13T05:21:31.996Z,1013.71
2018-11-13T05:22:31.995Z,1013.74
2018-11-13T05:23:32.004Z,1013.78
2018-11-13T05:24:31.967Z,1013.83
2018-11-13T05:25:31.999Z,1013.84
2018-11-13T05:26:32.017Z,1013.87
2018-11-13T05:27:31.980Z,1013.86
2018-11-13T05:28:31.980Z,1013.91
2018-11-13T05:29:31.990Z,1013.94
2018-11-13T05:30:31.985Z,1013.96
2018-11-13T05:31:31.992Z,1013.91
2018-11-13T05:32:32.002Z,1013.92
2018-11-13T05:33:31.973Z,1013.95
2018-11-13T05:34:31.981Z,1013.92
2018-11-13T05:35:31.995Z,1013.93
2018-11-13T05:36:31.989Z,1013.94
2018-11-13T05:37:31.992Z,1013.96
2018-11-13T05:38:32.001Z,1014.02
2018-11-13T05:39:31.991Z,1013.97
2018-11-13T05:40:32.012Z,1013.96
2018-11-13T05:41:32.045Z,1013.91
2018-11-13T05:42:31.984Z,1013.89
2018-11-13T05:43:31.977Z,1013.86
2018-11-13T05:44:31.984Z,1013.89
2018-11-13T05:45:31.979Z,1013.98
2018-11-13T05:46:31.989Z,1013.98
2018-11-13T05:47:31.979Z,1013.95
2018-11-13T05:48:31.987Z,1013.95
2018-11-13T05:49:31.986Z,1013.92
2018-11-13T05:50:31.984Z,1013.89
2018-11-13T05:51:31.994Z,1013.92
2018-11-13T05:52:31.991Z,1014.02
2018-11-13T05:53:31.999Z,1014.01
2018-11-13T05:54:31.998Z,1014.01
2018-11-13T05:55:31.996Z,1013.97
2018-11-13T05:56:32.010Z,1013.99
2018-11-13T05:57:32.009Z,1014.02
2018-11-13T05:58:32.021Z,1013.97
2018-11-13T05:59:31.987Z,1014.00
2018-11-13T06:00:32.036Z,1013.99
2018-11-13T06:01:32.005Z,1013.98
2018-11-13T06:02:31.980Z,1014.01
2018-11-13T06:03:32.033Z,1014.02
2018-11-13T06:04:31.989Z,1013.98
2018-11-13T06:05:31.987Z,1014.06
2018-11-13T06:06:32.044Z,1014.02
2018-11-13T06:07:31.991Z,1014.09
2018-11-13T06:08:32.061Z,1014.09
2018-11-13T06:09:32.019Z,1014.09
2018-11-13T06:10:31.989Z,1014.13
2018-11-13T06:11:32.008Z,1014.18
2018-11-13T06:12:32.000Z,1014.22
2018-11-13T06:13:32.034Z,1014.23
2018-11-13T06:14:31.983Z,1014.26
2018-11-13T06:15:31.990Z,1014.30
2018-11-13T06:16:31.980Z,1014.33
2018-11-13T06:17:31.984Z,1014.31
2018-11-13T06:18:31.994Z,1014.34
2018-11-13T06:19:31.999Z,1014.32
2018-11-13T06:20:31.997Z,1014.31
2018-11-13T06:21:31.983Z,1014.30
2018-11-13T06:22:31.978Z,1014.31
2018-11-13T06:23:32.017Z,1014.28
2018-11-13T06:24:32.007Z,1014.28
2018-11-13T06:25:32.000Z,1014.29
2018-11-13T06:26:32.004Z,1014.28
2018-11-13T06:27:32.006Z,1014.30
2018-11-13T06:28:32.016Z,1014.31
2018-11-13T06:29:32.070Z,1014.32
2018-11-13T06:30:32.000Z,1014.33
2018-11-13T06:31:32.024Z,1014.30
2018-11-13T06:32:31.987Z,1014.30
2018-11-13T06:33:32.002Z,1014.30
2018-11-13T06:34:32.008Z,1014.31
2018-11-13T06:35:32.008Z,1014.32
2018-11-13T06:36:32.007Z,1014.27
2018-11-13T06:37:31.991Z,1014.30
2018-11-13T06:38:32.026Z,1014.30
2018-11-13T06:39:32.046Z,1014.34
2018-11-13T06:40:31.996Z,1014.34
2018-11-13T06:41:32.005Z,1014.37
2018-11-13T06:42:31.992Z,1014.34
2018-11-13T06:43:32.019Z,1014.37
2018-11-13T06:44:32.013Z,1014.40
2018-11-13T06:45:31.990Z,1014.41
2018-11-13T06:46:32.028Z,1014.39
2018-11-13T06:47:31.982Z,1014.41
2018-11-13T06:48:31.984Z,1014.44
2018-11-13T06:49:32.010Z,1014.50
2018-11-13T06:50:31.990Z,1014.51
2018-11-13T06:51:31.992Z,1014.58
2018-11-13T06:52:32.007Z,1014.55
2018-11-13T06:53:32.029Z,1014.54
2018-11-13T06:54:31.984Z,1014.55
2018-11-13T06:55:31.984Z,1014.54
2018-11-13T06:56:32.037Z,1014.54
2018-11-13T06:57:32.063Z,1014.59
2018-11-13T06:58:31.999Z,1014.54
2018-11-13T06:59:32.001Z,1014.53
2018-11-13T07:00:32.011Z,1014.50
2018-11-13T07:01:31.987Z,1014.48
2018-11-13T07:02:32.025Z,1014.52
2018-11-13T07:03:32.015Z,1014.50
2018-11-13T07:04:32.006Z,1014.52
2018-11-13T07:05:31.988Z,1014.56
2018-11-13T07:06:31.990Z,1014.55
2018-11-13T07:07:32.003Z,1014.61
2018-11-13T07:08:32.035Z,1014.62
2018-11-13T07:09:32.041Z,1014.70
2018-11-13T07:10:32.040Z,1014.70
2018-11-13T07:11:32.002Z,1014.69
2018-11-13T07:12:31.994Z,1014.71
2018-11-13T07:13:32.019Z,1014.78
2018-11-13T07:14:31.987Z,1014.82
2018-11-13T07:15:31.987Z,1014.85
2018-11-13T07:16:32.021Z,1014.84
2018-11-13T07:17:32.014Z,1014.87
2018-11-13T07:18:32.117Z,1014.90
2018-11-13T07:19:32.000Z,1014.94
2018-11-13T07:20:32.039Z,1014.91
2018-11-13T07:21:32.038Z,1014.91
2018-11-13T07:22:32.002Z,1014.94
2018-11-13T07:23:31.982Z,1014.95
2018-11-13T07:24:31.980Z,1014.96
2018-11-13T07:25:32.057Z,1014.94
2018-11-13T07:26:31.998Z,1014.94
2018-11-13T07:27:32.065Z,1014.93
2018-11-13T07:28:31.988Z,1014.93
2018-11-13T07:29:32.011Z,1014.97
2018-11-13T07:30:31.996Z,1014.94
2018-11-13T07:31:32.020Z,1014.91
2018-11-13T07:32:31.988Z,1014.93
2018-11-13T07:33:32.061Z,1014.89
2018-11-13T07:34:32.160Z,1014.87
2018-11-13T07:35:32.039Z,1014.95
2018-11-13T07:36:31.989Z,1014.96
2018-11-13T07:37:32.042Z,1014.99
2018-11-13T07:38:31.984Z,1015.00
2018-11-13T07:39:32.027Z,1015.04
2018-11-13T07:40:31.990Z,1015.04
2018-11-13T07:41:32.030Z,1015.05
2018-11-13T07:42:31.997Z,1015.09
2018-11-13T07:43:32.049Z,1015.03
2018-11-13T07:44:31.988Z,1015.09
2018-11-13T07:45:32.015Z,1015.11
2018-11-13T07:46:32.075Z,1015.13
2018-11-13T07:47:32.271Z,1015.15
2018-11-13T07:48:32.020Z,1015.15
2018-11-13T07:49:32.215Z,1015.14
2018-11-13T07:50:32.013Z,1015.14
2018-11-13T07:51:31.993Z,1015.16
2018-11-13T07:52:31.985Z,1015.17
2018-11-13T07:53:31.987Z,1015.19
2018-11-13T07:54:31.999Z,1015.15
2018-11-13T07:55:31.986Z,1015.17
2018-11-13T07:56:32.073Z,1015.17
2018-11-13T07:57:31.994Z,1015.14
2018-11-13T07:58:32.102Z,1015.16
2018-11-13T07:59:31.999Z,1015.16
2018-11-13T08:00:31.998Z,1015.16
2018-11-13T08:01:31.993Z,1015.16
2018-11-13T08:02:32.010Z,1015.13
2018-11-13T08:03:32.020Z,1015.16
2018-11-13T08:04:32.017Z,1015.15
2018-11-13T08:05:32.072Z,1015.12
2018-11-13T08:06:32.068Z,1015.16
2018-11-13T08:07:32.031Z,1015.08
2018-11-13T08:08:32.037Z,1015.16
2018-11-13T08:09:31.992Z,1015.16
2018-11-13T08:10:32.090Z,1015.19
2018-11-13T08:11:32.096Z,1015.15
2018-11-13T08:12:31.986Z,1015.17
2018-11-13T08:13:32.068Z,1015.18
2018-11-13T08:14:32.034Z,1015.13
2018-11-13T08:15:32.069Z,1015.22
2018-11-13T08:16:32.049Z,1015.15
2018-11-13T08:17:32.003Z,1015.21
2018-11-13T08:18:32.055Z,1015.28
2018-11-13T08:19:32.032Z,1015.20
2018-11-13T08:20:32.023Z,1015.31
2018-11-13T08:21:32.002Z,1015.30
2018-11-13T08:22:32.001Z,1015.29
2018-11-13T08:23:32.017Z,1015.32
2018-11-13T08:24:32.006Z,1015.30
2018-11-13T08:25:32.064Z,1015.35
2018-11-13T08:26:31.998Z,1015.34
2018-11-13T08:27:32.039Z,1015.34
2018-11-13T08:28:32.047Z,1015.47
2018-11-13T08:29:32.061Z,1015.48
2018-11-13T08:30:32.023Z,1015.43
2018-11-13T08:31:32.081Z,1015.48
2018-11-13T08:32:32.006Z,1015.40
2018-11-13T08:33:32.036Z,1015.37
2018-11-13T08:34:32.016Z,1015.41
2018-11-13T08:35:32.135Z,1015.35
2018-11-13T08:36:32.039Z,1015.36
2018-11-13T08:37:32.037Z,1015.38
2018-11-13T08:38:32.023Z,1015.40
2018-11-13T08:39:32.046Z,1015.42
2018-11-13T08:40:32.055Z,1015.44
2018-11-13T08:41:32.056Z,1015.46
2018-11-13T08:42:32.089Z,1015.50
2018-11-13T08:43:32.105Z,1015.55
2018-11-13T08:44:32.041Z,1015.54
2018-11-13T08:45:32.039Z,1015.59
2018-11-13T08:46:32.032Z,1015.55
2018-11-13T08:47:32.029Z,1015.61
2018-11-13T08:48:32.042Z,1015.65
2018-11-13T08:49:32.024Z,1015.66
2018-11-13T08:50:32.082Z,1015.73
2018-11-13T08:51:32.034Z,1015.73
2018-11-13T08:52:32.080Z,1015.72
2018-11-13T08:53:32.060Z,1015.76
2018-11-13T08:54:32.039Z,1015.77
2018-11-13T08:55:32.050Z,1015.81
2018-11-13T08:56:32.115Z,1015.79
2018-11-13T08:57:32.046Z,1015.82
2018-11-13T08:58:32.116Z,1015.77
2018-11-13T08:59:32.176Z,1015.79
2018-11-13T09:00:32.025Z,1015.81
2018-11-13T09:01:32.183Z,1015.86
2018-11-13T09:02:32.065Z,1015.81
2018-11-13T09:03:32.038Z,1015.86
2018-11-13T09:04:32.024Z,1015.85
2018-11-13T09:05:32.046Z,1015.90
2018-11-13T09:06:32.034Z,1015.92
2018-11-13T09:07:32.058Z,1015.93
2018-11-13T09:08:32.050Z,1015.87
2018-11-13T09:09:32.043Z,1015.93
2018-11-13T09:10:32.046Z,1016.11
2018-11-13T09:11:32.090Z,1015.99
2018-11-13T09:12:32.180Z,1015.96
2018-11-13T09:13:32.093Z,1015.99
2018-11-13T09:14:32.041Z,1016.00
2018-11-13T09:15:32.070Z,1016.03
2018-11-13T09:16:32.073Z,1015.98
2018-11-13T09:17:32.033Z,1015.97
2018-11-13T09:18:32.037Z,1015.98
2018-11-13T09:19:32.320Z,1016.05
2018-11-13T09:20:32.209Z,1016.03
2018-11-13T09:21:32.054Z,1015.97
2018-11-13T09:22:32.075Z,1016.03
2018-11-13T09:23:32.040Z,1016.08
2018-11-13T09:24:33.049Z,1016.13
2018-11-13T09:25:32.137Z,1016.12
2018-11-13T09:26:32.059Z,1016.09
2018-11-13T09:27:32.045Z,1016.08
2018-11-13T09:28:32.107Z,1016.10
2018-11-13T09:29:32.080Z,1016.09
2018-11-13T09:30:32.308Z,1016.09
2018-11-13T09:31:32.088Z,1016.12
2018-11-13T09:32:33.734Z,1016.13
2018-11-13T09:33:32.107Z,1016.07
2018-11-13T09:34:32.095Z,1016.15
2018-11-13T09:35:33.780Z,1016.20
2018-11-13T09:36:32.088Z,1016.15
2018-11-13T09:37:32.097Z,1016.17
2018-11-13T09:38:32.085Z,1016.15
2018-11-13T09:39:32.186Z,1016.14
2018-11-13T09:40:32.080Z,1016.20
2018-11-13T09:41:32.140Z,1016.21
2018-11-13T09:42:32.059Z,1016.18
2018-11-13T09:43:32.067Z,1016.19
2018-11-13T09:44:32.056Z,1016.25
2018-11-13T09:45:32.278Z,1016.20
2018-11-13T09:46:32.056Z,1016.17
2018-11-13T09:47:32.094Z,1016.23
2018-11-13T09:48:32.107Z,1016.27
2018-11-13T09:49:32.142Z,1016.15
2018-11-13T09:50:32.139Z,1016.10
2018-11-13T09:51:32.116Z,1016.15
2018-11-13T09:52:32.084Z,1016.15
2018-11-13T09:53:32.178Z,1016.09
2018-11-13T09:54:32.093Z,1016.13
2018-11-13T09:55:32.087Z,1016.16
2018-11-13T09:56:32.155Z,1016.11
2018-11-13T09:57:32.103Z,1016.09
2018-11-13T09:58:32.135Z,1016.10
2018-11-13T09:59:32.069Z,1016.16
2018-11-13T10:00:32.386Z,1016.24
2018-11-13T10:01:32.432Z,1016.30
2018-11-13T10:02:32.706Z,1016.26
2018-11-13T10:03:32.510Z,1016.36
2018-11-13T10:04:32.702Z,1016.35
2018-11-13T10:05:32.250Z,1016.34
2018-11-13T10:06:32.109Z,1016.29
2018-11-13T10:07:32.119Z,1016.23
2018-11-13T10:08:32.104Z,1016.28
2018-11-13T10:09:32.131Z,1016.19
2018-11-13T10:10:32.107Z,1016.18
2018-11-13T10:11:32.103Z,1016.30
2018-11-13T10:12:32.098Z,1016.44
2018-11-13T10:13:32.106Z,1016.38
2018-11-13T10:14:32.195Z,1016.41
2018-11-13T10:15:32.122Z,1016.50
2018-11-13T10:16:32.112Z,1016.55
2018-11-13T10:17:32.174Z,1016.54
2018-11-13T10:18:32.111Z,1016.65
2018-11-13T10:19:32.093Z,1016.51
2018-11-13T10:20:32.138Z,1016.52
2018-11-13T10:21:32.124Z,1016.42
2018-11-13T10:22:32.125Z,1016.43
2018-11-13T10:23:32.109Z,1016.43
2018-11-13T10:24:32.108Z,1016.33
2018-11-13T10:25:32.111Z,1016.35
2018-11-13T10:26:32.195Z,1016.35
2018-11-13T10:27:32.160Z,1016.45
2018-11-13T10:28:32.119Z,1016.38
2018-11-13T10:29:32.148Z,1016.42
2018-11-13T10:30:32.179Z,1016.45
2018-11-13T10:31:32.137Z,1016.46
2018-11-13T10:32:32.141Z,1016.42
2018-11-13T10:33:32.118Z,1016.42
2018-11-13T10:34:32.150Z,1016.39
2018-11-13T10:35:32.158Z,1016.37
2018-11-13T10:36:32.195Z,1016.39
2018-11-13T10:37:32.126Z,1016.30
2018-11-13T10:38:32.150Z,1016.34
2018-11-13T10:39:32.164Z,1016.38
2018-11-13T10:40:32.225Z,1016.31
2018-11-13T10:41:32.231Z,1016.38
2018-11-13T10:42:32.163Z,1016.45
2018-11-13T10:43:32.172Z,1016.40
2018-11-13T10:44:32.176Z,1016.40
2018-11-13T10:45:32.184Z,1016.32
2018-11-13T10:46:32.176Z,1016.39
2018-11-13T10:47:32.169Z,1016.31
2018-11-13T10:48:32.193Z,1016.35
2018-11-13T10:49:32.175Z,1016.33
2018-11-13T10:50:32.294Z,1016.37
2018-11-13T10:51:32.240Z,1016.29
2018-11-13T10:52:32.200Z,1016.32
2018-11-13T10:53:32.144Z,1016.27
2018-11-13T10:54:32.183Z,1016.27
2018-11-13T10:55:32.216Z,1016.36
2018-11-13T10:56:32.239Z,1016.36
2018-11-13T10:57:32.219Z,1016.32
2018-11-13T10:58:32.285Z,1016.39
2018-11-13T10:59:32.214Z,1016.46
2018-11-13T11:00:32.167Z,1016.39
2018-11-13T11:01:32.249Z,1016.40
2018-11-13T11:02:32.226Z,1016.43
2018-11-13T11:03:32.209Z,1016.43
2018-11-13T11:04:32.235Z,1016.34
2018-11-13T11:05:32.167Z,1016.34
2018-11-13T11:06:32.163Z,1016.32
2018-11-13T11:07:32.166Z,1016.38
2018-11-13T11:08:32.243Z,1016.29
2018-11-13T11:09:32.370Z,1016.18
2018-11-13T11:10:32.263Z,1016.31
2018-11-13T11:11:32.251Z,1016.26
2018-11-13T11:12:32.202Z,1016.26
2018-11-13T11:13:32.257Z,1016.27
2018-11-13T11:14:32.235Z,1016.18
2018-11-13T11:15:32.198Z,1016.27
2018-11-13T11:16:32.185Z,1016.21
2018-11-13T11:17:32.222Z,1016.24
2018-11-13T11:18:32.207Z,1016.28
2018-11-13T11:19:32.307Z,1016.27
2018-11-13T11:20:32.201Z,1016.30
2018-11-13T11:21:32.236Z,1016.30
2018-11-13T11:22:32.223Z,1016.37
2018-11-13T11:23:32.243Z,1016.37
2018-11-13T11:24:32.233Z,1016.32
2018-11-13T11:25:32.329Z,1016.35
2018-11-13T11:26:32.275Z,1016.39
2018-11-13T11:27:32.218Z,1016.39
2018-11-13T11:28:32.200Z,1016.48
2018-11-13T11:29:32.241Z,1016.55
2018-11-13T11:30:32.197Z,1016.62
2018-11-13T11:31:32.212Z,1016.58
2018-11-13T11:32:32.197Z,1016.68
2018-11-13T11:33:32.199Z,1016.68
2018-11-13T11:34:32.209Z,1016.67
2018-11-13T11:35:32.223Z,1016.67
2018-11-13T11:36:32.227Z,1016.66
2018-11-13T11:37:32.225Z,1016.69
2018-11-13T11:38:32.315Z,1016.68
2018-11-13T11:39:32.236Z,1016.70
2018-11-13T11:40:32.210Z,1016.77
2018-11-13T11:41:32.216Z,1016.73
2018-11-13T11:42:32.230Z,1016.75
2018-11-13T11:43:32.218Z,1016.68
2018-11-13T11:44:32.330Z,1016.80
2018-11-13T11:45:32.212Z,1016.81
2018-11-13T11:46:32.217Z,1016.84
2018-11-13T11:47:32.249Z,1016.83
2018-11-13T11:48:32.233Z,1016.79
2018-11-13T11:49:32.239Z,1016.74
2018-11-13T11:50:32.248Z,1016.80
2018-11-13T11:51:32.248Z,1016.83
2018-11-13T11:52:32.250Z,1016.81
2018-11-13T11:53:32.218Z,1016.80
2018-11-13T11:54:32.276Z,1016.77
2018-11-13T11:55:32.224Z,1016.81
2018-11-13T11:56:32.228Z,1016.79
2018-11-13T11:57:32.257Z,1016.81
2018-11-13T11:58:32.288Z,1016.82
2018-11-13T11:59:32.241Z,1016.89
2018-11-13T12:00:32.282Z,1016.95
2018-11-13T12:01:32.305Z,1016.89
2018-11-13T12:02:32.245Z,1016.87
2018-11-13T12:03:32.255Z,1016.90
2018-11-13T12:04:32.254Z,1016.93
2018-11-13T12:05:32.272Z,1016.88